Time;durP1;ratioP1;P1;durP2;ratioP2;P2;SDS_P1;SDS_P2;PMS_P1;PMS_P2;Temp;Humidity;BMP_temperature;BMP_pressure;BME280_temperature;BME280_humidity;BME280_pressure;Samples;Min_cycle;Max_cycle;Signal;HPM_P1;HPM_P2
2021/07/07 00:00:41;;;;;;;7.47;1.67;;;;;;;15.12;77.70;99745.88;4994245;28;20046;-70
2021/07/07 00:03:08;;;;;;;8.65;1.58;;;;;;;15.20;77.14;99748.75;4995651;28;20077;-70
2021/07/07 00:05:34;;;;;;;9.60;1.60;;;;;;;15.21;76.93;99745.09;4995522;28;20092;-70
2021/07/07 00:08:01;;;;;;;8.30;1.70;;;;;;;15.13;77.57;99747.56;4994512;28;20050;-71
2021/07/07 00:10:33;;;;;;;6.80;1.80;;;;;;;15.18;77.56;99748.88;4994315;28;20050;-70
2021/07/07 00:13:02;;;;;;;12.82;1.73;;;;;;;15.10;77.77;99742.47;4995378;28;20116;-70
2021/07/07 00:15:33;;;;;;;12.55;2.10;;;;;;;15.22;76.99;99746.78;4995224;28;20133;-70
2021/07/07 00:18:02;;;;;;;6.40;1.63;;;;;;;15.21;77.63;99755.84;4995428;28;20126;-70
2021/07/07 00:20:39;;;;;;;9.75;1.77;;;;;;;15.16;77.49;99756.22;4986755;28;20051;-70
2021/07/07 00:23:06;;;;;;;9.48;1.92;;;;;;;15.12;77.68;99749.41;4975666;28;20051;-70
2021/07/07 00:25:33;;;;;;;9.77;1.88;;;;;;;15.13;77.20;99747.56;4975786;28;20065;-70
2021/07/07 00:28:00;;;;;;;7.13;1.88;;;;;;;15.08;77.76;99756.03;4976046;28;20054;-70
2021/07/07 00:30:27;;;;;;;12.63;2.00;;;;;;;15.11;77.64;99750.41;4978344;28;20050;-70
2021/07/07 00:32:56;;;;;;;9.55;1.92;;;;;;;15.09;79.14;99741.59;4979673;28;20102;-70
2021/07/07 00:35:23;;;;;;;11.57;2.00;;;;;;;15.06;77.36;99737.38;4979422;28;20728;-70
2021/07/07 00:37:50;;;;;;;12.38;2.08;;;;;;;15.04;78.11;99733.09;4980143;28;20062;-70
2021/07/07 00:40:18;;;;;;;12.80;2.58;;;;;;;15.04;78.41;99738.47;4979136;28;20047;-71
2021/07/07 00:42:45;;;;;;;8.45;1.83;;;;;;;15.04;78.26;99739.31;4979741;28;20389;-72
2021/07/07 00:45:13;;;;;;;12.40;2.15;;;;;;;15.00;78.23;99734.34;4978377;28;20101;-72
2021/07/07 00:47:41;;;;;;;10.82;2.22;;;;;;;15.01;78.26;99723.47;4979159;28;20070;-72
2021/07/07 00:50:08;;;;;;;12.18;2.58;;;;;;;15.00;78.68;99724.47;4979030;28;20050;-72
2021/07/07 00:52:35;;;;;;;7.80;2.10;;;;;;;15.00;78.52;99727.16;4979256;28;20101;-72
2021/07/07 00:55:07;;;;;;;12.63;1.92;;;;;;;15.01;78.30;99728.84;4978040;28;20051;-72
2021/07/07 00:57:35;;;;;;;8.30;1.98;;;;;;;14.94;78.42;99723.13;4979247;28;20051;-72
2021/07/07 01:00:10;;;;;;;6.22;2.08;;;;;;;15.03;78.13;99731.41;4978736;28;20065;-72
2021/07/07 01:02:38;;;;;;;15.48;2.85;;;;;;;14.96;78.63;99733.75;4978924;28;20054;-72
2021/07/07 01:05:07;;;;;;;14.90;1.90;;;;;;;14.98;78.06;99731.78;4978792;28;20078;-72
2021/07/07 01:07:33;;;;;;;11.65;2.42;;;;;;;15.00;79.01;99734.34;4978971;28;20142;-72
2021/07/07 01:10:01;;;;;;;10.77;2.47;;;;;;;14.94;78.61;99733.88;4978717;28;20082;-72
2021/07/07 01:12:28;;;;;;;9.10;2.20;;;;;;;14.90;78.74;99737.84;4977569;28;20433;-69
2021/07/07 01:14:57;;;;;;;14.70;3.13;;;;;;;14.94;78.61;99733.88;4977709;28;20109;-74
2021/07/07 01:17:24;;;;;;;13.13;2.10;;;;;;;14.99;78.48;99741.53;4978497;28;20058;-72
2021/07/07 01:19:51;;;;;;;9.73;2.10;;;;;;;15.01;78.50;99744.09;4982303;28;20153;-74
2021/07/07 01:22:18;;;;;;;9.45;1.85;;;;;;;14.95;78.82;99742.81;4997914;28;20421;-74
2021/07/07 01:24:44;;;;;;;9.25;1.88;;;;;;;14.94;78.71;99735.75;4996811;28;20170;-74
2021/07/07 01:27:11;;;;;;;9.63;1.83;;;;;;;14.88;79.17;99737.09;4998114;28;20060;-70
2021/07/07 01:29:37;;;;;;;9.35;1.98;;;;;;;14.93;79.39;99736.72;4996911;28;20050;-74
2021/07/07 01:32:04;;;;;;;14.35;2.50;;;;;;;14.89;79.55;99740.66;4997692;28;20436;-75
2021/07/07 01:34:31;;;;;;;13.05;2.03;;;;;;;14.94;78.63;99733.06;4997475;28;20455;-73
2021/07/07 01:36:58;;;;;;;4.97;1.58;;;;;;;14.95;78.62;99734.75;4997738;28;20105;-73
2021/07/07 01:39:24;;;;;;;14.07;2.33;;;;;;;14.96;78.85;99747.19;4997703;28;20101;-73
2021/07/07 01:41:51;;;;;;;8.18;1.98;;;;;;;14.92;78.82;99727.81;4995773;28;20047;-72
2021/07/07 01:44:22;;;;;;;;;;;;;;;14.99;78.87;99740.72;4998412;28;20093;-72
2021/07/07 01:46:49;;;;;;;11.35;1.67;;;;;;;15.03;78.50;99743.00;4997635;28;19921;-72
2021/07/07 01:49:16;;;;;;;15.18;2.50;;;;;;;14.97;79.03;99740.84;4996772;28;20478;-74
2021/07/07 01:51:42;;;;;;;10.52;1.98;;;;;;;14.96;79.15;99736.44;4997488;28;20053;-74
2021/07/07 01:54:09;;;;;;;13.93;1.90;;;;;;;15.02;78.52;99746.66;4997397;28;20054;-73
2021/07/07 01:56:35;;;;;;;6.75;2.33;;;;;;;14.99;78.63;99744.22;4997259;28;20511;-74
2021/07/07 01:59:02;;;;;;;7.80;2.03;;;;;;;14.97;78.99;99748.91;4997128;28;20047;-74
2021/07/07 02:01:29;;;;;;;7.93;1.90;;;;;;;15.00;78.83;99740.59;4997320;28;20042;-72
2021/07/07 02:03:56;;;;;;;12.75;2.20;;;;;;;14.98;78.84;99745.22;4997408;28;20055;-72
2021/07/07 02:06:22;;;;;;;11.50;2.42;;;;;;;14.93;79.43;99742.94;4997349;28;20065;-72
2021/07/07 02:08:49;;;;;;;7.13;2.20;;;;;;;14.96;79.06;99741.81;4996159;28;20050;-73
2021/07/07 02:11:16;;;;;;;8.65;1.92;;;;;;;14.95;79.43;99737.44;4997169;28;20074;-72
2021/07/07 02:13:42;;;;;;;13.48;2.28;;;;;;;14.96;79.37;99738.28;4996887;28;20046;-72
2021/07/07 02:16:09;;;;;;;13.52;2.20;;;;;;;14.88;80.14;99741.66;4996090;28;20194;-72
2021/07/07 02:18:36;;;;;;;7.45;2.17;;;;;;;14.88;79.52;99737.09;4995835;28;20499;-74
2021/07/07 02:21:03;;;;;;;8.85;2.03;;;;;;;14.86;79.84;99743.63;4982780;28;20078;-71
2021/07/07 02:23:30;;;;;;;8.73;2.00;;;;;;;14.82;79.96;99736.78;4976021;28;20146;-71
2021/07/07 02:25:56;;;;;;;9.35;2.15;;;;;;;14.84;79.84;99734.81;4977245;28;20507;-70
2021/07/07 02:28:26;;;;;;;7.47;1.75;;;;;;;14.80;80.08;99731.53;4977239;28;20102;-70
2021/07/07 02:30:54;;;;;;;8.95;1.95;;;;;;;14.79;81.28;99740.59;4977273;28;20046;-71
2021/07/07 02:33:21;;;;;;;7.85;1.98;;;;;;;14.77;80.75;99738.03;4977301;28;20050;-71
2021/07/07 02:35:48;;;;;;;8.77;2.40;;;;;;;14.72;80.88;99744.75;4976966;28;20504;-70
2021/07/07 02:38:18;;;;;;;9.63;2.03;;;;;;;14.66;81.17;99743.47;4977287;28;20051;-70
2021/07/07 02:40:47;;;;;;;9.65;2.22;;;;;;;14.78;80.20;99752.31;4977074;28;20095;-70
2021/07/07 02:43:14;;;;;;;14.15;2.28;;;;;;;14.76;80.85;99759.69;4976830;28;20058;-70
2021/07/07 02:45:42;;;;;;;7.72;2.08;;;;;;;14.69;80.58;99745.88;4977055;28;20109;-70
2021/07/07 02:48:12;;;;;;;8.63;2.00;;;;;;;14.68;80.67;99744.16;4976721;28;20130;-70
2021/07/07 02:50:39;;;;;;;12.43;2.35;;;;;;;14.79;80.46;99748.66;4977092;28;20050;-70
2021/07/07 02:53:07;;;;;;;6.93;2.03;;;;;;;14.78;80.17;99745.09;4976615;28;20182;-70
2021/07/07 02:55:34;;;;;;;6.18;1.73;;;;;;;14.78;80.55;99745.09;4976739;28;20105;-71
2021/07/07 02:58:02;;;;;;;12.75;2.30;;;;;;;14.77;80.53;99754.16;4976848;28;20480;-71
2021/07/07 03:00:30;;;;;;;6.45;1.90;;;;;;;14.76;80.57;99749.75;4975579;28;20101;-71
2021/07/07 03:03:04;;;;;;;17.52;2.65;;;;;;;14.79;80.74;99744.16;4976678;28;20396;-70
2021/07/07 03:05:33;;;;;;;9.45;2.58;;;;;;;14.65;80.94;99720.25;4976800;28;20089;-71
2021/07/07 03:07:59;;;;;;;11.65;2.42;;;;;;;14.80;80.77;99751.22;4976549;28;20500;-71
2021/07/07 03:10:26;;;;;;;9.55;2.28;;;;;;;14.80;80.38;99745.84;4977138;28;20055;-70
2021/07/07 03:12:53;;;;;;;16.15;2.60;;;;;;;14.83;79.80;99742.03;4977712;28;20492;-70
2021/07/07 03:15:20;;;;;;;8.02;2.30;;;;;;;14.90;79.83;99748.59;4977477;28;20074;-70
2021/07/07 03:17:46;;;;;;;14.00;2.75;;;;;;;14.90;79.79;99742.34;4976112;28;20058;-71
2021/07/07 03:20:14;;;;;;;8.63;1.90;;;;;;;14.93;80.27;99748.31;4982748;28;20050;-71
2021/07/07 03:22:41;;;;;;;10.30;2.35;;;;;;;14.94;80.62;99755.38;4995665;28;20093;-70
2021/07/07 03:25:08;;;;;;;14.35;2.47;;;;;;;14.82;80.04;99724.19;4995719;28;20050;-71
2021/07/07 03:27:36;;;;;;;16.83;2.35;;;;;;;15.01;79.90;99755.72;4995937;28;20050;-71
2021/07/07 03:30:07;;;;;;;9.50;1.90;;;;;;;15.06;80.92;99766.94;4978702;28;20444;-71
2021/07/07 03:32:34;;;;;;;6.35;2.17;;;;;;;14.98;80.50;99757.81;4995608;28;20116;-70
2021/07/07 03:35:03;;;;;;;10.88;2.20;;;;;;;15.10;79.81;99774.72;4995880;28;20096;-71
2021/07/07 03:37:30;;;;;;;9.52;1.80;;;;;;;15.09;80.02;99765.78;4995775;28;20112;-71
2021/07/07 03:39:56;;;;;;;11.27;2.33;;;;;;;15.03;80.12;99759.13;4995581;28;20436;-71
2021/07/07 03:42:23;;;;;;;9.10;1.70;;;;;;;15.09;79.77;99756.91;4995651;28;20050;-70
2021/07/07 03:44:50;;;;;;;11.30;2.30;;;;;;;15.14;79.86;99765.41;4995458;28;20051;-71
2021/07/07 03:47:16;;;;;;;12.07;2.42;;;;;;;15.13;80.09;99774.44;4995817;28;20151;-70
2021/07/07 03:49:43;;;;;;;12.95;1.98;;;;;;;15.15;79.95;99781.38;4994350;28;20464;-71
2021/07/07 03:52:10;;;;;;;9.60;1.67;;;;;;;15.26;79.18;99783.13;4995542;28;20085;-71
2021/07/07 03:54:36;;;;;;;9.88;1.95;;;;;;;15.25;79.74;99784.13;4994355;28;20101;-71
2021/07/07 03:57:03;;;;;;;11.52;1.95;;;;;;;15.22;79.33;99787.09;4995398;28;20104;-71
2021/07/07 03:59:30;;;;;;;7.47;1.83;;;;;;;15.24;79.24;99787.81;4994592;28;20081;-70
2021/07/07 04:01:56;;;;;;;14.60;2.30;;;;;;;15.25;79.53;99794.06;4995394;28;20432;-70
2021/07/07 04:04:23;;;;;;;9.30;2.00;;;;;;;15.20;79.20;99792.59;4996185;28;20054;-70
2021/07/07 04:06:50;;;;;;;9.90;2.20;;;;;;;15.18;79.86;99793.72;4999539;28;20078;-70
2021/07/07 04:09:19;;;;;;;11.65;2.17;;;;;;;15.18;79.64;99799.97;4999472;28;20058;-70
2021/07/07 04:11:46;;;;;;;9.10;2.25;;;;;;;15.19;79.66;99806.16;4998339;28;20097;-71
2021/07/07 04:14:13;;;;;;;8.77;3.05;;;;;;;15.25;79.64;99805.63;4999087;28;20124;-70
2021/07/07 04:16:39;;;;;;;11.55;3.17;;;;;;;15.24;79.23;99822.75;4999051;28;20491;-70
2021/07/07 04:19:06;;;;;;;9.00;1.83;;;;;;;15.17;79.95;99824.28;4998993;28;20055;-69
2021/07/07 04:21:33;;;;;;;14.00;2.10;;;;;;;15.11;80.10;99825.66;4981866;28;20495;-69
2021/07/07 04:24:00;;;;;;;5.90;1.73;;;;;;;15.05;80.36;99818.97;4979582;28;20400;-69
2021/07/07 04:26:26;;;;;;;10.43;1.90;;;;;;;15.05;80.25;99828.88;4978793;28;20055;-70
2021/07/07 04:28:53;;;;;;;10.38;2.10;;;;;;;15.09;80.18;99816.03;4979387;28;20129;-70
2021/07/07 04:31:19;;;;;;;8.20;1.75;;;;;;;14.98;80.53;99815.09;4979708;28;20125;-71
2021/07/07 04:33:46;;;;;;;11.02;1.90;;;;;;;15.12;80.03;99838.13;4978480;28;20145;-71
2021/07/07 04:36:12;;;;;;;14.48;2.13;;;;;;;15.12;80.07;99837.25;4979664;28;20105;-70
2021/07/07 04:38:39;;;;;;;9.85;2.13;;;;;;;15.05;80.48;99821.66;4962428;28;20058;-70
2021/07/07 04:41:06;;;;;;;10.88;2.10;;;;;;;15.10;80.54;99839.22;4979078;28;20082;-70
2021/07/07 04:43:32;;;;;;;10.68;2.45;;;;;;;15.07;80.62;99838.50;4977974;28;20055;-70
2021/07/07 04:45:59;;;;;;;8.38;2.00;;;;;;;15.05;80.59;99840.47;4978319;28;20054;-70
2021/07/07 04:48:25;;;;;;;8.80;2.10;;;;;;;15.08;80.70;99842.03;4977831;28;20051;-71
2021/07/07 04:50:52;;;;;;;6.40;1.77;;;;;;;15.05;81.30;99834.25;4978919;28;20449;-69
2021/07/07 04:53:19;;;;;;;10.95;2.08;;;;;;;15.04;80.89;99833.38;4979190;28;20046;-70
2021/07/07 04:55:45;;;;;;;8.45;1.85;;;;;;;15.03;81.29;99833.53;4977850;28;20058;-70
2021/07/07 04:58:13;;;;;;;9.52;1.90;;;;;;;15.05;81.25;99832.41;4977757;28;20697;-70
2021/07/07 05:00:39;;;;;;;7.78;1.98;;;;;;;15.05;81.23;99837.78;4976935;28;20058;-70
2021/07/07 05:03:06;;;;;;;10.30;2.20;;;;;;;15.17;80.95;99835.03;4976550;28;20436;-70
2021/07/07 05:05:32;;;;;;;10.45;1.80;;;;;;;15.18;81.02;99836.72;4977982;28;20051;-70
2021/07/07 05:08:04;;;;;;;9.98;2.15;;;;;;;15.22;80.91;99838.19;4977837;28;20074;-70
2021/07/07 05:10:32;;;;;;;9.27;1.95;;;;;;;15.30;80.23;99830.31;4978762;28;20050;-68
2021/07/07 05:13:03;;;;;;;9.65;2.17;;;;;;;15.33;80.91;99845.31;4983933;28;20054;-71
2021/07/07 05:15:34;;;;;;;8.45;1.95;;;;;;;15.45;80.08;99844.25;4988387;28;20547;-72
2021/07/07 05:18:02;;;;;;;13.13;2.20;;;;;;;15.47;80.17;99844.09;4987198;28;20050;-71
2021/07/07 05:20:30;;;;;;;6.90;1.80;;;;;;;15.50;80.16;99840.28;4987930;28;20073;-71
2021/07/07 05:22:57;;;;;;;11.10;2.05;;;;;;;15.63;79.97;99857.06;4987242;28;20046;-71
2021/07/07 05:25:23;;;;;;;13.48;2.95;;;;;;;15.64;80.06;99858.81;4987641;28;20499;-71
2021/07/07 05:27:51;;;;;;;10.13;2.15;;;;;;;15.64;80.78;99852.56;4988866;28;20057;-71
2021/07/07 05:30:24;;;;;;;13.35;3.35;;;;;;;15.67;79.64;99858.53;4988903;28;20089;-75
2021/07/07 05:32:51;;;;;;;10.30;2.22;;;;;;;15.74;79.74;99856.13;4989242;28;20373;-71
2021/07/07 05:35:17;;;;;;;10.10;2.08;;;;;;;15.83;79.51;99863.41;4985848;28;20070;-71
2021/07/07 05:37:46;;;;;;;10.43;1.95;;;;;;;15.84;79.86;99866.94;4987612;28;20058;-71
2021/07/07 05:40:18;;;;;;;10.23;2.10;;;;;;;15.86;80.08;99870.38;4987672;28;20141;-76
2021/07/07 05:42:52;;;;;;;12.68;2.63;;;;;;;15.96;79.18;99873.97;4987459;28;20488;-73
2021/07/07 05:45:25;;;;;;;13.48;2.00;;;;;;;16.02;79.38;99875.28;4990054;28;20109;-72
2021/07/07 05:47:54;;;;;;;14.75;2.20;;;;;;;16.03;79.94;99879.66;4986330;28;20146;-71
2021/07/07 05:50:24;;;;;;;6.47;2.42;;;;;;;16.12;78.97;99884.22;4987580;28;20050;-68
2021/07/07 05:52:51;;;;;;;8.18;2.10;;;;;;;16.11;78.52;99879.84;4988279;28;20054;-70
2021/07/07 05:55:20;;;;;;;9.15;2.17;;;;;;;16.17;78.80;99885.66;4988328;28;20353;-71
2021/07/07 05:57:47;;;;;;;9.18;1.80;;;;;;;16.19;78.81;99880.97;4987653;28;20048;-72
2021/07/07 06:00:19;;;;;;;13.80;2.28;;;;;;;16.18;79.09;99881.97;4987401;28;20428;-71
2021/07/07 06:02:51;;;;;;;9.25;2.47;;;;;;;16.17;78.39;99889.19;4984535;28;20043;-73
2021/07/07 06:05:19;;;;;;;8.93;2.03;;;;;;;16.32;77.55;99894.19;4985302;28;20090;-69
2021/07/07 06:07:46;;;;;;;10.30;1.60;;;;;;;16.38;77.31;99899.88;4977775;28;20066;-69
2021/07/07 06:10:16;;;;;;;4.70;1.83;;;;;;;16.33;78.02;99899.44;4977574;28;20054;-72
2021/07/07 06:12:43;;;;;;;7.13;2.15;;;;;;;16.38;77.20;99899.88;4977627;28;20054;-70
2021/07/07 06:15:13;;;;;;;10.32;2.17;;;;;;;16.48;78.09;99908.00;4977227;28;20109;-69
2021/07/07 06:17:39;;;;;;;10.32;2.00;;;;;;;16.51;77.31;99904.19;4977593;28;20055;-69
2021/07/07 06:20:09;;;;;;;13.82;2.22;;;;;;;16.59;77.24;99907.03;4982845;28;20052;-69
2021/07/07 06:22:37;;;;;;;13.52;2.35;;;;;;;16.61;77.45;99907.72;4996815;28;20453;-69
2021/07/07 06:25:06;;;;;;;7.22;1.92;;;;;;;16.65;77.64;99913.69;4996426;28;20058;-69
2021/07/07 06:27:36;;;;;;;10.10;2.47;;;;;;;16.74;77.42;99914.69;4995393;28;20058;-70
2021/07/07 06:30:08;;;;;;;10.05;2.13;;;;;;;16.75;78.00;99917.25;4996729;28;20054;-69
2021/07/07 06:32:35;;;;;;;8.57;2.45;;;;;;;16.75;76.94;99913.69;4996686;28;20046;-70
2021/07/07 06:35:02;;;;;;;6.93;1.80;;;;;;;16.83;76.38;99911.16;4996715;28;20108;-70
2021/07/07 06:37:29;;;;;;;6.93;2.05;;;;;;;16.91;76.22;99911.31;4996380;28;20108;-70
2021/07/07 06:39:58;;;;;;;8.32;2.03;;;;;;;17.00;75.24;99919.53;4996488;28;20058;-69
2021/07/07 06:42:25;;;;;;;8.73;1.70;;;;;;;17.03;75.57;99914.75;4996323;28;20133;-70
2021/07/07 06:44:52;;;;;;;9.82;2.17;;;;;;;17.08;74.91;99922.41;4996629;28;20053;-70
2021/07/07 06:47:19;;;;;;;9.63;1.88;;;;;;;17.16;74.52;99927.94;4996331;28;20399;-70
2021/07/07 06:49:46;;;;;;;4.82;1.70;;;;;;;17.24;74.10;99933.50;4996283;28;20054;-70
2021/07/07 06:52:13;;;;;;;11.00;2.00;;;;;;;17.19;74.19;99919.56;4996458;28;20054;-70
2021/07/07 06:54:42;;;;;;;8.55;2.08;;;;;;;17.23;75.04;99931.75;4996555;28;20107;-70
2021/07/07 06:57:10;;;;;;;10.93;1.88;;;;;;;17.34;74.00;99925.34;4996322;28;20104;-70
2021/07/07 06:59:36;;;;;;;11.48;1.73;;;;;;;17.32;73.85;99923.84;4995082;28;20077;-69
2021/07/07 07:02:04;;;;;;;9.32;2.20;;;;;;;17.38;73.31;99934.88;4994976;28;20432;-70
2021/07/07 07:04:32;;;;;;;9.32;2.40;;;;;;;17.46;73.77;99936.88;4996198;28;20108;-70
2021/07/07 07:06:59;;;;;;;8.73;2.00;;;;;;;17.53;72.93;99941.69;4996282;28;20097;-69
2021/07/07 07:09:26;;;;;;;6.18;1.85;;;;;;;17.60;73.05;99932.84;4995861;28;20081;-70
2021/07/07 07:11:53;;;;;;;9.63;1.88;;;;;;;17.62;72.43;99936.28;4995115;28;20105;-70
2021/07/07 07:14:20;;;;;;;9.60;1.90;;;;;;;17.70;70.29;99950.88;4996146;28;20054;-70
2021/07/07 07:16:47;;;;;;;6.85;2.25;;;;;;;17.70;71.23;99946.31;4996119;28;20325;-70
2021/07/07 07:19:14;;;;;;;9.93;2.13;;;;;;;17.65;72.09;99949.47;4995882;28;20108;-69
2021/07/07 07:21:41;;;;;;;8.43;2.08;;;;;;;17.71;71.17;99941.78;4977898;28;20050;-70
2021/07/07 07:24:09;;;;;;;10.48;2.03;;;;;;;17.76;71.90;99953.00;4976157;28;20121;-70
2021/07/07 07:26:36;;;;;;;10.50;2.17;;;;;;;17.77;70.92;99954.72;4976540;28;20059;-71
2021/07/07 07:29:04;;;;;;;10.65;2.05;;;;;;;17.80;71.31;99961.66;4976322;28;20432;-70
2021/07/07 07:31:32;;;;;;;8.23;2.00;;;;;;;17.91;72.16;99962.34;4976589;28;20101;-70
2021/07/07 07:33:58;;;;;;;5.75;1.65;;;;;;;17.92;70.58;99961.34;4976265;28;20326;-69
2021/07/07 07:36:26;;;;;;;5.93;1.85;;;;;;;17.97;72.34;99960.88;4976129;28;20145;-69
2021/07/07 07:39:08;;;;;;;9.02;2.28;;;;;;;18.07;70.18;99963.59;4975782;28;20091;-70
2021/07/07 07:41:38;;;;;;;9.30;1.92;;;;;;;18.16;69.29;99964.56;4976202;28;20356;-70
2021/07/07 07:44:10;;;;;;;8.95;1.65;;;;;;;18.18;68.50;99968.81;4976510;28;20047;-70
2021/07/07 07:46:38;;;;;;;13.75;2.40;;;;;;;18.26;68.92;99970.75;4976170;28;20054;-69
2021/07/07 07:49:06;;;;;;;9.73;2.00;;;;;;;18.34;68.76;99972.72;4976484;28;20062;-69
2021/07/07 07:51:34;;;;;;;7.53;1.70;;;;;;;18.37;67.63;99974.28;4976289;28;20050;-69
2021/07/07 07:54:00;;;;;;;14.15;2.13;;;;;;;18.35;67.46;99976.28;4976341;28;20141;-69
2021/07/07 07:56:27;;;;;;;5.03;1.73;;;;;;;18.38;69.66;99974.13;4974935;28;20054;-70
2021/07/07 07:58:54;;;;;;;11.50;1.83;;;;;;;18.42;69.09;99970.13;4976340;28;20103;-70
2021/07/07 08:01:20;;;;;;;14.43;2.45;;;;;;;18.46;66.08;99974.25;4976130;28;20421;-69
2021/07/07 08:03:47;;;;;;;8.75;2.63;;;;;;;18.50;67.11;99972.09;4975925;28;20105;-69
2021/07/07 08:06:14;;;;;;;11.65;2.00;;;;;;;18.54;68.15;99984.31;4975189;28;20099;-70
2021/07/07 08:08:40;;;;;;;16.65;2.22;;;;;;;18.64;66.47;99986.09;4974983;28;20448;-70
2021/07/07 08:11:07;;;;;;;8.50;1.65;;;;;;;18.61;66.48;99987.25;4977703;28;20054;-70
2021/07/07 08:13:34;;;;;;;8.80;1.90;;;;;;;18.53;67.38;99979.88;4976488;28;20059;-71
2021/07/07 08:16:01;;;;;;;17.48;2.17;;;;;;;18.54;67.00;99988.84;4977168;28;20093;-70
2021/07/07 08:18:28;;;;;;;10.27;2.70;;;;;;;18.53;66.96;99987.16;4975903;28;20058;-71
2021/07/07 08:20:55;;;;;;;13.05;2.08;;;;;;;18.67;66.94;99989.34;4988010;28;20057;-71
2021/07/07 08:23:23;;;;;;;7.93;1.58;;;;;;;18.73;65.35;99987.88;4994950;28;20050;-71
2021/07/07 08:25:50;;;;;;;7.50;1.60;;;;;;;18.70;65.72;99971.97;4995369;28;20054;-70
2021/07/07 08:28:16;;;;;;;6.40;1.50;;;;;;;18.92;64.92;99984.22;4995188;28;20050;-71
2021/07/07 08:30:43;;;;;;;4.30;1.70;;;;;;;19.02;63.26;99992.31;4978389;28;20093;-71
2021/07/07 08:33:10;;;;;;;8.75;1.85;;;;;;;19.19;62.16;99989.75;4995319;28;20340;-71
2021/07/07 08:35:38;;;;;;;9.57;1.98;;;;;;;19.40;61.76;100006.53;4995332;28;20050;-70
2021/07/07 08:38:05;;;;;;;8.13;1.70;;;;;;;19.50;61.83;99997.47;4993971;28;20519;-71
2021/07/07 08:40:32;;;;;;;10.18;1.90;;;;;;;19.71;61.54;99999.00;4995188;28;20054;-71
2021/07/07 08:42:59;;;;;;;6.78;1.40;;;;;;;19.77;58.80;99995.66;4994345;28;20046;-71
2021/07/07 08:45:26;;;;;;;6.20;1.83;;;;;;;19.75;59.08;99994.94;4995299;28;20455;-71
2021/07/07 08:47:52;;;;;;;10.48;1.83;;;;;;;19.85;59.20;100002.97;4995233;28;20372;-71
2021/07/07 08:50:24;;;;;;;8.93;1.75;;;;;;;19.71;58.22;100007.13;4995478;28;20050;-71
2021/07/07 08:52:52;;;;;;;11.35;1.80;;;;;;;19.83;59.68;99997.72;4998607;28;20058;-71
2021/07/07 08:55:21;;;;;;;7.82;1.70;;;;;;;19.99;58.93;99988.88;4998455;28;20422;-71
2021/07/07 08:57:49;;;;;;;8.98;1.60;;;;;;;20.14;59.69;100001.84;4998513;28;20404;-71
2021/07/07 09:00:18;;;;;;;11.18;1.83;;;;;;;20.20;59.45;100002.06;4998697;28;20090;-71
2021/07/07 09:02:54;;;;;;;11.40;1.42;;;;;;;20.17;58.21;99985.28;4998221;28;20065;-71
2021/07/07 09:05:24;;;;;;;11.50;1.58;;;;;;;20.21;58.06;99998.34;4998381;28;20458;-70
2021/07/07 09:07:51;;;;;;;9.45;1.42;;;;;;;20.22;58.61;100004.63;4998407;28;20097;-71
2021/07/07 09:10:27;;;;;;;9.85;1.85;;;;;;;20.26;57.45;100002.44;4998142;28;20109;-70
2021/07/07 09:12:53;;;;;;;11.55;1.80;;;;;;;20.41;57.15;100008.94;4998097;28;20062;-71
2021/07/07 09:15:21;;;;;;;10.95;1.83;;;;;;;20.38;56.94;100006.56;4998421;28;20065;-71
2021/07/07 09:17:50;;;;;;;7.97;1.45;;;;;;;20.33;57.60;100003.50;4997917;28;20104;-69
2021/07/07 09:20:23;;;;;;;9.93;1.63;;;;;;;20.40;56.90;100007.25;4991520;28;20424;-69
2021/07/07 09:22:51;;;;;;;7.43;1.90;;;;;;;20.56;55.80;100011.03;4978622;28;20058;-70
2021/07/07 09:25:27;;;;;;;8.43;1.40;;;;;;;20.49;53.96;100011.69;4978301;28;20055;-69
2021/07/07 09:27:54;;;;;;;5.18;1.48;;;;;;;20.58;54.30;100017.13;4978461;28;20066;-69
2021/07/07 09:30:20;;;;;;;7.65;1.48;;;;;;;20.70;52.95;100021.25;4978543;28;20055;-69
2021/07/07 09:32:50;;;;;;;8.40;1.77;;;;;;;20.74;52.73;100017.22;4978309;28;20051;-70
2021/07/07 09:35:19;;;;;;;10.02;1.58;;;;;;;20.79;52.58;100015.84;4978231;28;20050;-70
2021/07/07 09:37:55;;;;;;;5.00;1.27;;;;;;;20.86;53.62;100025.94;4978432;28;20082;-70
2021/07/07 09:40:23;;;;;;;8.35;1.38;;;;;;;20.97;53.61;100027.47;4978632;28;20054;-70
2021/07/07 09:42:50;;;;;;;11.05;2.28;;;;;;;21.07;53.31;100029.22;4978313;28;20046;-70
2021/07/07 09:45:21;;;;;;;6.25;1.50;;;;;;;21.10;52.51;100029.75;4978192;28;20635;-70
2021/07/07 09:47:50;;;;;;;7.70;1.52;;;;;;;21.05;52.00;100039.38;4978015;28;20723;-70
2021/07/07 09:50:18;;;;;;;8.90;1.48;;;;;;;21.17;52.05;100024.47;4977894;28;20429;-70
2021/07/07 09:52:45;;;;;;;9.70;1.50;;;;;;;21.34;52.22;100032.66;4978142;28;20047;-74
2021/07/07 09:55:13;;;;;;;6.20;1.48;;;;;;;21.43;53.27;100037.06;4977990;28;20051;-70
2021/07/07 09:57:44;;;;;;;3.42;1.20;;;;;;;21.56;52.35;100040.16;4960723;28;20070;-70
2021/07/07 10:00:17;;;;;;;4.38;1.20;;;;;;;21.78;54.25;100043.22;4976724;28;20059;-70
2021/07/07 10:02:47;;;;;;;9.13;1.73;;;;;;;21.96;51.27;100047.66;4975940;28;20046;-70
2021/07/07 10:05:17;;;;;;;11.50;1.77;;;;;;;21.66;52.00;100049.97;4977867;28;20139;-70
2021/07/07 10:07:45;;;;;;;3.05;1.33;;;;;;;21.52;51.23;100049.63;4977995;28;20050;-71
2021/07/07 10:10:14;;;;;;;9.90;1.45;;;;;;;21.42;52.89;100043.53;4976439;28;20455;-70
2021/07/07 10:12:46;;;;;;;8.35;1.70;;;;;;;21.10;53.84;100047.88;4977746;28;20054;-71
2021/07/07 10:15:15;;;;;;;6.45;1.60;;;;;;;20.94;54.12;100046.81;4977671;28;20138;-71
2021/07/07 10:17:43;;;;;;;6.97;1.50;;;;;;;20.82;54.08;100062.50;4977784;28;20452;-72
2021/07/07 10:20:13;;;;;;;5.68;1.50;;;;;;;21.36;53.97;100060.47;4983246;28;20046;-72
2021/07/07 10:22:41;;;;;;;11.55;1.70;;;;;;;21.90;55.55;100051.88;4996810;28;20077;-70
2021/07/07 10:25:11;;;;;;;4.70;1.50;;;;;;;22.34;51.98;100056.06;4996495;28;20116;-70
2021/07/07 10:27:39;;;;;;;9.75;1.40;;;;;;;22.46;49.10;100047.53;4997018;28;20051;-70
2021/07/07 10:30:08;;;;;;;4.00;1.20;;;;;;;22.32;49.30;100060.81;4995558;28;20101;-70
2021/07/07 10:32:35;;;;;;;4.82;1.20;;;;;;;22.18;48.00;100056.09;4979727;28;20046;-70
2021/07/07 10:35:07;;;;;;;5.68;1.25;;;;;;;22.07;50.75;100057.31;4995652;28;20050;-69
2021/07/07 10:37:35;;;;;;;9.10;1.38;;;;;;;22.41;50.28;100047.19;4995462;28;20112;-69
2021/07/07 10:40:29;;;;;;;3.45;1.08;;;;;;;22.46;50.31;100066.56;4996814;28;20058;-69
2021/07/07 10:42:56;;;;;;;3.22;1.13;;;;;;;22.32;49.15;100068.97;4996474;28;20363;-69
2021/07/07 10:45:32;;;;;;;4.57;1.20;;;;;;;22.57;48.58;100063.53;4996943;28;20058;-69
2021/07/07 10:48:18;;;;;;;8.35;1.25;;;;;;;22.78;49.06;100068.34;4996498;28;20050;-69
2021/07/07 10:50:44;;;;;;;6.78;1.15;;;;;;;22.92;48.96;100060.47;4996577;28;20046;-69
2021/07/07 10:53:23;;;;;;;6.60;1.52;;;;;;;22.92;49.86;100068.63;4996507;28;20102;-70
2021/07/07 10:55:50;;;;;;;3.40;0.93;;;;;;;23.13;47.75;100057.13;4996276;28;20050;-70
2021/07/07 10:58:24;;;;;;;3.78;1.27;;;;;;;23.29;47.55;100066.22;4996239;28;20105;-70
2021/07/07 11:00:51;;;;;;;6.05;1.20;;;;;;;23.16;48.25;100073.09;4996201;28;20117;-70
2021/07/07 11:03:18;;;;;;;5.03;1.23;;;;;;;23.02;47.40;100068.41;4996366;28;20046;-69
2021/07/07 11:05:45;;;;;;;5.50;1.20;;;;;;;23.08;47.11;100077.78;4996154;28;20046;-71
2021/07/07 11:08:21;;;;;;;6.85;1.05;;;;;;;22.39;48.28;100069.97;4996183;28;20108;-71
2021/07/07 11:10:59;;;;;;;6.35;1.55;;;;;;;22.32;50.20;100073.56;4996093;28;20058;-70
2021/07/07 11:13:41;;;;;;;7.10;1.63;;;;;;;22.10;50.77;100085.00;4995615;28;20129;-70
2021/07/07 11:16:08;;;;;;;6.78;1.25;;;;;;;21.67;51.08;100073.41;4995722;28;20050;-69
2021/07/07 11:18:36;;;;;;;4.28;1.20;;;;;;;21.60;51.17;100080.53;4995943;28;20082;-69
2021/07/07 11:21:06;;;;;;;6.72;1.10;;;;;;;22.02;50.05;100078.72;4983057;28;20105;-70
2021/07/07 11:23:34;;;;;;;6.53;1.50;;;;;;;22.00;50.81;100078.03;4976326;28;20046;-70
2021/07/07 11:26:01;;;;;;;10.52;1.40;;;;;;;22.02;49.37;100085.00;4975260;28;20146;-69
2021/07/07 11:28:27;;;;;;;4.90;0.95;;;;;;;22.19;50.89;100083.13;4975502;28;20375;-70
2021/07/07 11:30:54;;;;;;;4.32;1.13;;;;;;;22.16;49.92;100090.78;4976226;28;20503;-70
2021/07/07 11:33:21;;;;;;;4.60;0.98;;;;;;;22.09;50.59;100088.72;4976282;28;20074;-70